sensor_id;sensor_type;location;lat;lon;timestamp;P1;durP1;ratioP1;P2;durP2;ratioP2
79412;SDS011;68863;49.528;11.010;2023-07-29T00:00:46;3.00;;;0.80;;
79412;SDS011;68863;49.528;11.010;2023-07-29T00:01:47;2.55;;;0.70;;
79412;SDS011;68863;49.528;11.010;2023-07-29T00:02:49;3.45;;;0.90;;
79412;SDS011;68863;49.528;11.010;2023-07-29T00:03:49;3.10;;;0.85;;
79412;SDS011;68863;49.528;11.010;2023-07-29T00:04:49;2.97;;;0.90;;
79412;SDS011;68863;49.528;11.010;2023-07-29T00:05:50;3.50;;;0.87;;
79412;SDS011;68863;49.528;11.010;2023-07-29T00:06:52;3.25;;;0.90;;
79412;SDS011;68863;49.528;11.010;2023-07-29T00:07:53;3.15;;;0.88;;
79412;SDS011;68863;49.528;11.010;2023-07-29T00:08:53;2.77;;;1.00;;
79412;SDS011;68863;49.528;11.010;2023-07-29T00:09:53;3.70;;;1.00;;
79412;SDS011;68863;49.528;11.010;2023-07-29T00:10:54;3.00;;;1.20;;
79412;SDS011;68863;49.528;11.010;2023-07-29T00:11:54;3.55;;;0.95;;
79412;SDS011;68863;49.528;11.010;2023-07-29T00:12:54;4.78;;;0.93;;
79412;SDS011;68863;49.528;11.010;2023-07-29T00:13:55;2.95;;;0.82;;
79412;SDS011;68863;49.528;11.010;2023-07-29T00:14:55;3.85;;;1.40;;
79412;SDS011;68863;49.528;11.010;2023-07-29T00:15:56;4.88;;;1.13;;
79412;SDS011;68863;49.528;11.010;2023-07-29T00:16:56;3.65;;;1.08;;
79412;SDS011;68863;49.528;11.010;2023-07-29T00:17:56;2.97;;;0.87;;
79412;SDS011;68863;49.528;11.010;2023-07-29T00:18:56;3.70;;;1.13;;
79412;SDS011;68863;49.528;11.010;2023-07-29T00:19:57;3.30;;;1.10;;
79412;SDS011;68863;49.528;11.010;2023-07-29T00:20:57;4.37;;;1.20;;
79412;SDS011;68863;49.528;11.010;2023-07-29T00:21:57;4.43;;;1.13;;
79412;SDS011;68863;49.528;11.010;2023-07-29T00:22:58;3.75;;;1.08;;
79412;SDS011;68863;49.528;11.010;2023-07-29T00:23:58;3.17;;;0.95;;
79412;SDS011;68863;49.528;11.010;2023-07-29T00:25:01;3.53;;;0.98;;
79412;SDS011;68863;49.528;11.010;2023-07-29T00:26:01;4.25;;;1.27;;
79412;SDS011;68863;49.528;11.010;2023-07-29T00:27:01;3.70;;;0.80;;
79412;SDS011;68863;49.528;11.010;2023-07-29T00:28:01;3.70;;;1.00;;
79412;SDS011;68863;49.528;11.010;2023-07-29T00:29:02;6.00;;;1.15;;
79412;SDS011;68863;49.528;11.010;2023-07-29T00:30:02;3.58;;;1.10;;
79412;SDS011;68863;49.528;11.010;2023-07-29T00:31:03;4.15;;;1.17;;
79412;SDS011;68863;49.528;11.010;2023-07-29T00:32:03;3.42;;;0.90;;
79412;SDS011;68863;49.528;11.010;2023-07-29T00:33:04;5.15;;;1.15;;
79412;SDS011;68863;49.528;11.010;2023-07-29T00:34:04;3.73;;;1.10;;
79412;SDS011;68863;49.528;11.010;2023-07-29T00:35:05;3.80;;;1.20;;
79412;SDS011;68863;49.528;11.010;2023-07-29T00:36:06;3.65;;;1.20;;
79412;SDS011;68863;49.528;11.010;2023-07-29T00:37:06;3.85;;;1.45;;
79412;SDS011;68863;49.528;11.010;2023-07-29T00:38:06;4.05;;;1.02;;
79412;SDS011;68863;49.528;11.010;2023-07-29T00:39:06;4.75;;;1.20;;
79412;SDS011;68863;49.528;11.010;2023-07-29T00:40:14;4.65;;;1.35;;
79412;SDS011;68863;49.528;11.010;2023-07-29T00:41:19;3.70;;;1.30;;
79412;SDS011;68863;49.528;11.010;2023-07-29T00:43:21;5.30;;;1.00;;
79412;SDS011;68863;49.528;11.010;2023-07-29T00:44:21;3.60;;;1.27;;
79412;SDS011;68863;49.528;11.010;2023-07-29T00:45:22;4.20;;;1.42;;
79412;SDS011;68863;49.528;11.010;2023-07-29T00:46:24;5.30;;;1.40;;
79412;SDS011;68863;49.528;11.010;2023-07-29T00:47:27;4.15;;;1.40;;
79412;SDS011;68863;49.528;11.010;2023-07-29T00:48:28;4.07;;;1.38;;
79412;SDS011;68863;49.528;11.010;2023-07-29T00:49:28;4.33;;;1.37;;
79412;SDS011;68863;49.528;11.010;2023-07-29T00:50:29;4.93;;;1.45;;
79412;SDS011;68863;49.528;11.010;2023-07-29T00:51:32;3.55;;;1.15;;
79412;SDS011;68863;49.528;11.010;2023-07-29T00:52:32;3.42;;;1.27;;
79412;SDS011;68863;49.528;11.010;2023-07-29T00:53:33;4.05;;;1.42;;
79412;SDS011;68863;49.528;11.010;2023-07-29T00:54:33;3.58;;;1.23;;
79412;SDS011;68863;49.528;11.010;2023-07-29T00:55:33;4.72;;;1.15;;
79412;SDS011;68863;49.528;11.010;2023-07-29T00:56:34;4.25;;;1.23;;
79412;SDS011;68863;49.528;11.010;2023-07-29T00:57:38;4.05;;;1.45;;
79412;SDS011;68863;49.528;11.010;2023-07-29T00:58:39;3.55;;;1.23;;
79412;SDS011;68863;49.528;11.010;2023-07-29T00:59:39;4.82;;;1.30;;
79412;SDS011;68863;49.528;11.010;2023-07-29T01:00:40;3.92;;;1.65;;
79412;SDS011;68863;49.528;11.010;2023-07-29T01:01:41;4.22;;;1.42;;
79412;SDS011;68863;49.528;11.010;2023-07-29T01:02:42;3.67;;;1.58;;
79412;SDS011;68863;49.528;11.010;2023-07-29T01:03:43;4.55;;;1.42;;
79412;SDS011;68863;49.528;11.010;2023-07-29T01:04:50;3.92;;;1.52;;
79412;SDS011;68863;49.528;11.010;2023-07-29T01:06:05;4.40;;;1.38;;
79412;SDS011;68863;49.528;11.010;2023-07-29T01:08:23;3.78;;;1.35;;
79412;SDS011;68863;49.528;11.010;2023-07-29T01:09:33;4.13;;;1.40;;
79412;SDS011;68863;49.528;11.010;2023-07-29T01:12:20;4.28;;;1.48;;
79412;SDS011;68863;49.528;11.010;2023-07-29T01:13:31;3.83;;;1.35;;
79412;SDS011;68863;49.528;11.010;2023-07-29T01:14:44;3.75;;;1.23;;
79412;SDS011;68863;49.528;11.010;2023-07-29T01:17:22;4.65;;;1.25;;
79412;SDS011;68863;49.528;11.010;2023-07-29T01:18:31;4.93;;;1.77;;
79412;SDS011;68863;49.528;11.010;2023-07-29T01:19:42;4.15;;;1.30;;
79412;SDS011;68863;49.528;11.010;2023-07-29T01:20:46;7.72;;;2.13;;
79412;SDS011;68863;49.528;11.010;2023-07-29T01:21:48;5.13;;;1.73;;
79412;SDS011;68863;49.528;11.010;2023-07-29T01:22:49;4.70;;;1.52;;
79412;SDS011;68863;49.528;11.010;2023-07-29T01:23:53;4.10;;;1.33;;
79412;SDS011;68863;49.528;11.010;2023-07-29T01:24:53;3.92;;;1.48;;
79412;SDS011;68863;49.528;11.010;2023-07-29T01:25:53;6.22;;;1.33;;
79412;SDS011;68863;49.528;11.010;2023-07-29T01:26:54;4.80;;;1.42;;
79412;SDS011;68863;49.528;11.010;2023-07-29T01:27:54;4.15;;;1.42;;
79412;SDS011;68863;49.528;11.010;2023-07-29T01:28:56;4.05;;;1.20;;
79412;SDS011;68863;49.528;11.010;2023-07-29T01:29:58;3.83;;;1.40;;
79412;SDS011;68863;49.528;11.010;2023-07-29T01:31:03;4.70;;;1.48;;
79412;SDS011;68863;49.528;11.010;2023-07-29T01:32:10;5.72;;;1.30;;
79412;SDS011;68863;49.528;11.010;2023-07-29T01:33:16;5.30;;;1.50;;
79412;SDS011;68863;49.528;11.010;2023-07-29T01:34:24;3.92;;;1.35;;
79412;SDS011;68863;49.528;11.010;2023-07-29T01:37:03;4.07;;;1.38;;
79412;SDS011;68863;49.528;11.010;2023-07-29T01:38:18;4.22;;;1.52;;
79412;SDS011;68863;49.528;11.010;2023-07-29T01:39:23;5.18;;;1.50;;
79412;SDS011;68863;49.528;11.010;2023-07-29T01:40:27;3.90;;;1.42;;
79412;SDS011;68863;49.528;11.010;2023-07-29T01:41:28;3.70;;;1.20;;
79412;SDS011;68863;49.528;11.010;2023-07-29T01:42:29;4.20;;;1.42;;
79412;SDS011;68863;49.528;11.010;2023-07-29T01:43:29;3.85;;;1.48;;
79412;SDS011;68863;49.528;11.010;2023-07-29T01:44:30;4.68;;;1.50;;
79412;SDS011;68863;49.528;11.010;2023-07-29T01:45:32;4.40;;;2.00;;
79412;SDS011;68863;49.528;11.010;2023-07-29T01:46:35;3.47;;;1.20;;
79412;SDS011;68863;49.528;11.010;2023-07-29T01:47:36;4.15;;;1.45;;
79412;SDS011;68863;49.528;11.010;2023-07-29T01:48:40;5.38;;;1.60;;
79412;SDS011;68863;49.528;11.010;2023-07-29T01:49:41;6.25;;;1.42;;
79412;SDS011;68863;49.528;11.010;2023-07-29T01:50:41;5.93;;;1.60;;
79412;SDS011;68863;49.528;11.010;2023-07-29T01:51:41;3.67;;;1.37;;
79412;SDS011;68863;49.528;11.010;2023-07-29T01:52:41;4.60;;;1.50;;
79412;SDS011;68863;49.528;11.010;2023-07-29T01:53:42;4.32;;;1.65;;
79412;SDS011;68863;49.528;11.010;2023-07-29T01:54:42;4.10;;;1.30;;
79412;SDS011;68863;49.528;11.010;2023-07-29T01:55:43;4.07;;;1.38;;
79412;SDS011;68863;49.528;11.010;2023-07-29T01:56:44;4.82;;;1.65;;
79412;SDS011;68863;49.528;11.010;2023-07-29T01:57:45;4.63;;;1.33;;
79412;SDS011;68863;49.528;11.010;2023-07-29T01:58:45;4.50;;;1.80;;
79412;SDS011;68863;49.528;11.010;2023-07-29T01:59:45;5.67;;;1.70;;
79412;SDS011;68863;49.528;11.010;2023-07-29T02:00:46;5.23;;;1.63;;
79412;SDS011;68863;49.528;11.010;2023-07-29T02:01:46;4.60;;;1.80;;
79412;SDS011;68863;49.528;11.010;2023-07-29T02:02:46;4.30;;;1.17;;
79412;SDS011;68863;49.528;11.010;2023-07-29T02:03:46;3.90;;;1.52;;
79412;SDS011;68863;49.528;11.010;2023-07-29T02:04:48;4.95;;;1.40;;
79412;SDS011;68863;49.528;11.010;2023-07-29T02:05:51;4.65;;;1.50;;
79412;SDS011;68863;49.528;11.010;2023-07-29T02:06:51;4.95;;;1.55;;
79412;SDS011;68863;49.528;11.010;2023-07-29T02:07:52;4.60;;;1.45;;
79412;SDS011;68863;49.528;11.010;2023-07-29T02:08:52;4.20;;;1.50;;
79412;SDS011;68863;49.528;11.010;2023-07-29T02:09:52;4.22;;;1.40;;
79412;SDS011;68863;49.528;11.010;2023-07-29T02:10:53;4.22;;;1.40;;
79412;SDS011;68863;49.528;11.010;2023-07-29T02:11:53;4.33;;;1.87;;
79412;SDS011;68863;49.528;11.010;2023-07-29T02:12:53;4.37;;;1.67;;
79412;SDS011;68863;49.528;11.010;2023-07-29T02:13:54;4.47;;;1.52;;
79412;SDS011;68863;49.528;11.010;2023-07-29T02:14:55;3.63;;;1.45;;
79412;SDS011;68863;49.528;11.010;2023-07-29T02:15:55;4.60;;;1.65;;
79412;SDS011;68863;49.528;11.010;2023-07-29T02:16:56;4.38;;;1.33;;
79412;SDS011;68863;49.528;11.010;2023-07-29T02:17:56;5.45;;;1.85;;
79412;SDS011;68863;49.528;11.010;2023-07-29T02:18:56;4.07;;;1.33;;
79412;SDS011;68863;49.528;11.010;2023-07-29T02:19:56;5.03;;;1.90;;
79412;SDS011;68863;49.528;11.010;2023-07-29T02:20:57;4.18;;;1.65;;
79412;SDS011;68863;49.528;11.010;2023-07-29T02:21:57;4.33;;;1.63;;
79412;SDS011;68863;49.528;11.010;2023-07-29T02:22:57;5.30;;;1.67;;
79412;SDS011;68863;49.528;11.010;2023-07-29T02:23:57;4.23;;;1.67;;
79412;SDS011;68863;49.528;11.010;2023-07-29T02:24:58;5.10;;;1.33;;
79412;SDS011;68863;49.528;11.010;2023-07-29T02:25:58;4.85;;;1.67;;
79412;SDS011;68863;49.528;11.010;2023-07-29T02:26:58;4.87;;;1.80;;
79412;SDS011;68863;49.528;11.010;2023-07-29T02:27:58;5.47;;;1.83;;
79412;SDS011;68863;49.528;11.010;2023-07-29T02:28:59;4.68;;;1.55;;
79412;SDS011;68863;49.528;11.010;2023-07-29T02:29:59;4.75;;;1.67;;
79412;SDS011;68863;49.528;11.010;2023-07-29T02:31:09;5.13;;;1.53;;
79412;SDS011;68863;49.528;11.010;2023-07-29T02:32:17;4.70;;;1.73;;
79412;SDS011;68863;49.528;11.010;2023-07-29T02:33:17;4.17;;;1.73;;
79412;SDS011;68863;49.528;11.010;2023-07-29T02:34:17;4.32;;;1.88;;
79412;SDS011;68863;49.528;11.010;2023-07-29T02:35:17;5.20;;;1.87;;
79412;SDS011;68863;49.528;11.010;2023-07-29T02:36:18;4.68;;;2.13;;
79412;SDS011;68863;49.528;11.010;2023-07-29T02:37:18;4.15;;;1.80;;
79412;SDS011;68863;49.528;11.010;2023-07-29T02:38:19;4.93;;;2.10;;
79412;SDS011;68863;49.528;11.010;2023-07-29T02:39:19;4.10;;;1.37;;
79412;SDS011;68863;49.528;11.010;2023-07-29T02:40:19;4.20;;;1.50;;
79412;SDS011;68863;49.528;11.010;2023-07-29T02:41:20;4.35;;;1.60;;
79412;SDS011;68863;49.528;11.010;2023-07-29T02:42:21;4.28;;;1.42;;
79412;SDS011;68863;49.528;11.010;2023-07-29T02:43:21;4.63;;;1.48;;
79412;SDS011;68863;49.528;11.010;2023-07-29T02:44:21;5.63;;;2.27;;
79412;SDS011;68863;49.528;11.010;2023-07-29T02:45:22;4.85;;;1.73;;
79412;SDS011;68863;49.528;11.010;2023-07-29T02:46:22;5.30;;;2.10;;
79412;SDS011;68863;49.528;11.010;2023-07-29T02:47:22;5.60;;;2.00;;
79412;SDS011;68863;49.528;11.010;2023-07-29T02:48:23;6.10;;;2.00;;
79412;SDS011;68863;49.528;11.010;2023-07-29T02:49:25;4.40;;;1.83;;
79412;SDS011;68863;49.528;11.010;2023-07-29T02:50:25;4.88;;;2.03;;
79412;SDS011;68863;49.528;11.010;2023-07-29T02:51:25;6.30;;;2.20;;
79412;SDS011;68863;49.528;11.010;2023-07-29T02:52:26;5.53;;;2.20;;
79412;SDS011;68863;49.528;11.010;2023-07-29T02:53:26;4.88;;;1.50;;
79412;SDS011;68863;49.528;11.010;2023-07-29T02:54:26;4.35;;;1.75;;
79412;SDS011;68863;49.528;11.010;2023-07-29T02:55:27;4.72;;;1.50;;
79412;SDS011;68863;49.528;11.010;2023-07-29T02:56:27;4.10;;;1.58;;
79412;SDS011;68863;49.528;11.010;2023-07-29T02:57:28;4.47;;;1.85;;
79412;SDS011;68863;49.528;11.010;2023-07-29T02:58:28;5.88;;;1.52;;
79412;SDS011;68863;49.528;11.010;2023-07-29T02:59:29;5.50;;;1.90;;
79412;SDS011;68863;49.528;11.010;2023-07-29T03:00:31;4.93;;;1.83;;
79412;SDS011;68863;49.528;11.010;2023-07-29T03:01:32;4.43;;;1.90;;
79412;SDS011;68863;49.528;11.010;2023-07-29T03:02:34;5.00;;;2.00;;
79412;SDS011;68863;49.528;11.010;2023-07-29T03:03:34;5.47;;;1.80;;
79412;SDS011;68863;49.528;11.010;2023-07-29T03:04:34;5.00;;;1.43;;
79412;SDS011;68863;49.528;11.010;2023-07-29T03:05:35;4.90;;;1.80;;
79412;SDS011;68863;49.528;11.010;2023-07-29T03:06:35;6.13;;;1.63;;
79412;SDS011;68863;49.528;11.010;2023-07-29T03:07:35;5.30;;;1.70;;
79412;SDS011;68863;49.528;11.010;2023-07-29T03:08:36;4.57;;;1.67;;
79412;SDS011;68863;49.528;11.010;2023-07-29T03:09:37;4.55;;;1.42;;
79412;SDS011;68863;49.528;11.010;2023-07-29T03:10:37;4.70;;;2.00;;
79412;SDS011;68863;49.528;11.010;2023-07-29T03:11:37;7.38;;;1.80;;
79412;SDS011;68863;49.528;11.010;2023-07-29T03:12:38;4.53;;;1.50;;
79412;SDS011;68863;49.528;11.010;2023-07-29T03:13:38;5.20;;;1.97;;
79412;SDS011;68863;49.528;11.010;2023-07-29T03:14:38;4.50;;;1.58;;
79412;SDS011;68863;49.528;11.010;2023-07-29T03:15:39;4.20;;;1.45;;
79412;SDS011;68863;49.528;11.010;2023-07-29T03:16:39;4.45;;;1.60;;
79412;SDS011;68863;49.528;11.010;2023-07-29T03:17:39;3.97;;;1.30;;
79412;SDS011;68863;49.528;11.010;2023-07-29T03:18:40;6.78;;;2.33;;
79412;SDS011;68863;49.528;11.010;2023-07-29T03:19:41;4.60;;;1.75;;
79412;SDS011;68863;49.528;11.010;2023-07-29T03:20:41;4.80;;;1.63;;
79412;SDS011;68863;49.528;11.010;2023-07-29T03:21:42;4.45;;;1.90;;
79412;SDS011;68863;49.528;11.010;2023-07-29T03:22:42;5.32;;;1.65;;
79412;SDS011;68863;49.528;11.010;2023-07-29T03:23:43;4.53;;;1.65;;
79412;SDS011;68863;49.528;11.010;2023-07-29T03:24:43;4.22;;;1.52;;
79412;SDS011;68863;49.528;11.010;2023-07-29T03:25:44;5.70;;;1.58;;
79412;SDS011;68863;49.528;11.010;2023-07-29T03:26:48;5.30;;;1.90;;
79412;SDS011;68863;49.528;11.010;2023-07-29T03:27:49;4.70;;;1.85;;
79412;SDS011;68863;49.528;11.010;2023-07-29T03:28:49;5.10;;;1.80;;
79412;SDS011;68863;49.528;11.010;2023-07-29T03:29:49;5.55;;;2.35;;
79412;SDS011;68863;49.528;11.010;2023-07-29T03:30:50;4.78;;;1.85;;
79412;SDS011;68863;49.528;11.010;2023-07-29T03:31:50;5.25;;;2.03;;
79412;SDS011;68863;49.528;11.010;2023-07-29T03:32:50;5.05;;;1.92;;
79412;SDS011;68863;49.528;11.010;2023-07-29T03:33:51;4.95;;;2.17;;
79412;SDS011;68863;49.528;11.010;2023-07-29T03:34:51;4.75;;;1.83;;
79412;SDS011;68863;49.528;11.010;2023-07-29T03:35:51;5.35;;;1.58;;
79412;SDS011;68863;49.528;11.010;2023-07-29T03:36:52;5.15;;;1.75;;
79412;SDS011;68863;49.528;11.010;2023-07-29T03:37:53;4.45;;;2.35;;
79412;SDS011;68863;49.528;11.010;2023-07-29T03:38:53;4.37;;;1.80;;
79412;SDS011;68863;49.528;11.010;2023-07-29T03:39:53;6.07;;;1.98;;
79412;SDS011;68863;49.528;11.010;2023-07-29T03:40:54;5.32;;;1.77;;
79412;SDS011;68863;49.528;11.010;2023-07-29T03:41:54;5.13;;;1.75;;
79412;SDS011;68863;49.528;11.010;2023-07-29T03:42:54;5.03;;;1.67;;
79412;SDS011;68863;49.528;11.010;2023-07-29T03:43:55;5.53;;;2.30;;
79412;SDS011;68863;49.528;11.010;2023-07-29T03:44:55;4.88;;;1.83;;
79412;SDS011;68863;49.528;11.010;2023-07-29T03:45:55;4.70;;;1.80;;
79412;SDS011;68863;49.528;11.010;2023-07-29T03:46:55;6.05;;;2.22;;
79412;SDS011;68863;49.528;11.010;2023-07-29T03:47:56;4.60;;;1.60;;
79412;SDS011;68863;49.528;11.010;2023-07-29T03:48:56;4.35;;;1.77;;
79412;SDS011;68863;49.528;11.010;2023-07-29T03:49:57;5.03;;;1.70;;
79412;SDS011;68863;49.528;11.010;2023-07-29T03:50:57;4.78;;;2.17;;
79412;SDS011;68863;49.528;11.010;2023-07-29T03:51:58;6.10;;;2.15;;
79412;SDS011;68863;49.528;11.010;2023-07-29T03:52:58;4.85;;;1.98;;
79412;SDS011;68863;49.528;11.010;2023-07-29T03:53:58;4.40;;;1.67;;
79412;SDS011;68863;49.528;11.010;2023-07-29T03:54:58;5.97;;;2.07;;
79412;SDS011;68863;49.528;11.010;2023-07-29T03:55:59;5.38;;;2.38;;
79412;SDS011;68863;49.528;11.010;2023-07-29T03:56:59;5.43;;;2.10;;
79412;SDS011;68863;49.528;11.010;2023-07-29T03:58:00;4.95;;;1.92;;
79412;SDS011;68863;49.528;11.010;2023-07-29T03:59:06;6.68;;;2.17;;
79412;SDS011;68863;49.528;11.010;2023-07-29T04:00:07;5.28;;;2.13;;
79412;SDS011;68863;49.528;11.010;2023-07-29T04:01:09;4.90;;;2.15;;
79412;SDS011;68863;49.528;11.010;2023-07-29T04:02:09;5.13;;;2.03;;
79412;SDS011;68863;49.528;11.010;2023-07-29T04:03:09;5.63;;;1.80;;
79412;SDS011;68863;49.528;11.010;2023-07-29T04:04:09;5.70;;;2.05;;
79412;SDS011;68863;49.528;11.010;2023-07-29T04:05:10;5.15;;;2.20;;
79412;SDS011;68863;49.528;11.010;2023-07-29T04:06:10;6.53;;;2.67;;
79412;SDS011;68863;49.528;11.010;2023-07-29T04:07:10;7.03;;;2.50;;
79412;SDS011;68863;49.528;11.010;2023-07-29T04:08:11;4.78;;;2.13;;
79412;SDS011;68863;49.528;11.010;2023-07-29T04:09:11;7.47;;;2.13;;
79412;SDS011;68863;49.528;11.010;2023-07-29T04:10:11;5.75;;;2.08;;
79412;SDS011;68863;49.528;11.010;2023-07-29T04:11:12;6.03;;;2.33;;
79412;SDS011;68863;49.528;11.010;2023-07-29T04:12:13;5.53;;;2.08;;
79412;SDS011;68863;49.528;11.010;2023-07-29T04:13:13;6.47;;;2.25;;
79412;SDS011;68863;49.528;11.010;2023-07-29T04:14:13;5.57;;;2.30;;
79412;SDS011;68863;49.528;11.010;2023-07-29T04:15:13;6.33;;;2.40;;
79412;SDS011;68863;49.528;11.010;2023-07-29T04:16:19;6.60;;;2.65;;
79412;SDS011;68863;49.528;11.010;2023-07-29T04:17:19;6.22;;;2.15;;
79412;SDS011;68863;49.528;11.010;2023-07-29T04:18:20;5.93;;;2.40;;
79412;SDS011;68863;49.528;11.010;2023-07-29T04:19:20;5.53;;;2.53;;
79412;SDS011;68863;49.528;11.010;2023-07-29T04:20:20;6.05;;;2.13;;
79412;SDS011;68863;49.528;11.010;2023-07-29T04:21:20;5.80;;;2.65;;
79412;SDS011;68863;49.528;11.010;2023-07-29T04:22:21;5.53;;;2.20;;
79412;SDS011;68863;49.528;11.010;2023-07-29T04:23:21;6.60;;;3.10;;
79412;SDS011;68863;49.528;11.010;2023-07-29T04:24:21;5.10;;;2.45;;
79412;SDS011;68863;49.528;11.010;2023-07-29T04:25:23;5.93;;;2.45;;
79412;SDS011;68863;49.528;11.010;2023-07-29T04:26:23;4.82;;;2.30;;
79412;SDS011;68863;49.528;11.010;2023-07-29T04:27:23;5.07;;;2.15;;
79412;SDS011;68863;49.528;11.010;2023-07-29T04:28:24;6.28;;;2.15;;
79412;SDS011;68863;49.528;11.010;2023-07-29T04:29:24;4.88;;;2.33;;
79412;SDS011;68863;49.528;11.010;2023-07-29T04:30:24;4.97;;;2.22;;
79412;SDS011;68863;49.528;11.010;2023-07-29T04:31:25;5.10;;;2.05;;
79412;SDS011;68863;49.528;11.010;2023-07-29T04:32:25;5.55;;;2.22;;
79412;SDS011;68863;49.528;11.010;2023-07-29T04:33:25;6.38;;;2.08;;
79412;SDS011;68863;49.528;11.010;2023-07-29T04:34:26;6.70;;;2.63;;
79412;SDS011;68863;49.528;11.010;2023-07-29T04:35:26;7.20;;;2.27;;
79412;SDS011;68863;49.528;11.010;2023-07-29T04:36:26;5.30;;;2.35;;
79412;SDS011;68863;49.528;11.010;2023-07-29T04:37:27;5.20;;;2.17;;
79412;SDS011;68863;49.528;11.010;2023-07-29T04:38:29;5.83;;;2.23;;
79412;SDS011;68863;49.528;11.010;2023-07-29T04:39:32;6.40;;;2.58;;
79412;SDS011;68863;49.528;11.010;2023-07-29T04:40:33;6.45;;;2.72;;
79412;SDS011;68863;49.528;11.010;2023-07-29T04:41:33;5.22;;;2.42;;
79412;SDS011;68863;49.528;11.010;2023-07-29T04:42:34;4.70;;;2.00;;
79412;SDS011;68863;49.528;11.010;2023-07-29T04:43:34;5.33;;;2.03;;
79412;SDS011;68863;49.528;11.010;2023-07-29T04:44:34;5.80;;;2.20;;
79412;SDS011;68863;49.528;11.010;2023-07-29T04:45:34;5.90;;;2.43;;
79412;SDS011;68863;49.528;11.010;2023-07-29T04:46:35;5.53;;;2.57;;
79412;SDS011;68863;49.528;11.010;2023-07-29T04:47:36;5.63;;;2.67;;
79412;SDS011;68863;49.528;11.010;2023-07-29T04:48:36;5.90;;;2.30;;
79412;SDS011;68863;49.528;11.010;2023-07-29T04:49:37;5.00;;;2.50;;
79412;SDS011;68863;49.528;11.010;2023-07-29T04:50:37;5.20;;;2.15;;
79412;SDS011;68863;49.528;11.010;2023-07-29T04:51:37;5.10;;;1.90;;
79412;SDS011;68863;49.528;11.010;2023-07-29T04:52:37;5.50;;;2.53;;
79412;SDS011;68863;49.528;11.010;2023-07-29T04:53:38;4.70;;;2.22;;
79412;SDS011;68863;49.528;11.010;2023-07-29T04:54:38;5.28;;;2.25;;
79412;SDS011;68863;49.528;11.010;2023-07-29T04:55:41;5.47;;;2.13;;
79412;SDS011;68863;49.528;11.010;2023-07-29T04:56:42;5.93;;;2.28;;
79412;SDS011;68863;49.528;11.010;2023-07-29T04:57:42;5.87;;;2.23;;
79412;SDS011;68863;49.528;11.010;2023-07-29T04:58:42;5.37;;;2.20;;
79412;SDS011;68863;49.528;11.010;2023-07-29T04:59:42;4.70;;;1.83;;
79412;SDS011;68863;49.528;11.010;2023-07-29T05:00:43;6.03;;;2.20;;
79412;SDS011;68863;49.528;11.010;2023-07-29T05:01:43;6.40;;;2.17;;
79412;SDS011;68863;49.528;11.010;2023-07-29T05:02:43;5.28;;;2.15;;
79412;SDS011;68863;49.528;11.010;2023-07-29T05:03:44;4.93;;;2.23;;
79412;SDS011;68863;49.528;11.010;2023-07-29T05:04:44;5.38;;;2.38;;
79412;SDS011;68863;49.528;11.010;2023-07-29T05:05:44;5.78;;;2.30;;
79412;SDS011;68863;49.528;11.010;2023-07-29T05:06:44;6.13;;;2.07;;
79412;SDS011;68863;49.528;11.010;2023-07-29T05:07:45;5.90;;;2.50;;
79412;SDS011;68863;49.528;11.010;2023-07-29T05:08:45;4.87;;;2.07;;
79412;SDS011;68863;49.528;11.010;2023-07-29T05:09:47;5.93;;;2.17;;
79412;SDS011;68863;49.528;11.010;2023-07-29T05:10:50;5.32;;;2.40;;
79412;SDS011;68863;49.528;11.010;2023-07-29T05:11:52;5.18;;;2.20;;
79412;SDS011;68863;49.528;11.010;2023-07-29T05:12:52;5.78;;;2.60;;
79412;SDS011;68863;49.528;11.010;2023-07-29T05:13:53;8.10;;;2.67;;
79412;SDS011;68863;49.528;11.010;2023-07-29T05:14:53;5.75;;;2.55;;
79412;SDS011;68863;49.528;11.010;2023-07-29T05:15:53;6.40;;;2.78;;
79412;SDS011;68863;49.528;11.010;2023-07-29T05:16:54;4.85;;;2.22;;
79412;SDS011;68863;49.528;11.010;2023-07-29T05:17:54;5.40;;;2.33;;
79412;SDS011;68863;49.528;11.010;2023-07-29T05:18:55;5.50;;;2.50;;
79412;SDS011;68863;49.528;11.010;2023-07-29T05:19:55;4.95;;;2.35;;
79412;SDS011;68863;49.528;11.010;2023-07-29T05:20:55;5.13;;;2.38;;
79412;SDS011;68863;49.528;11.010;2023-07-29T05:21:56;6.40;;;2.33;;
79412;SDS011;68863;49.528;11.010;2023-07-29T05:22:57;5.85;;;2.22;;
79412;SDS011;68863;49.528;11.010;2023-07-29T05:23:57;5.45;;;2.10;;
79412;SDS011;68863;49.528;11.010;2023-07-29T05:24:57;5.43;;;2.05;;
79412;SDS011;68863;49.528;11.010;2023-07-29T05:25:58;5.00;;;2.20;;
79412;SDS011;68863;49.528;11.010;2023-07-29T05:26:58;5.32;;;2.50;;
79412;SDS011;68863;49.528;11.010;2023-07-29T05:27:58;4.70;;;2.20;;
79412;SDS011;68863;49.528;11.010;2023-07-29T05:28:58;5.90;;;2.57;;
79412;SDS011;68863;49.528;11.010;2023-07-29T05:29:59;4.83;;;2.00;;
79412;SDS011;68863;49.528;11.010;2023-07-29T05:31:00;5.68;;;2.15;;
79412;SDS011;68863;49.528;11.010;2023-07-29T05:33:02;4.67;;;1.77;;
79412;SDS011;68863;49.528;11.010;2023-07-29T05:34:02;5.25;;;2.33;;
79412;SDS011;68863;49.528;11.010;2023-07-29T05:35:02;5.13;;;2.22;;
79412;SDS011;68863;49.528;11.010;2023-07-29T05:36:03;4.50;;;1.98;;
79412;SDS011;68863;49.528;11.010;2023-07-29T05:37:04;5.75;;;2.22;;
79412;SDS011;68863;49.528;11.010;2023-07-29T05:38:04;4.30;;;1.63;;
79412;SDS011;68863;49.528;11.010;2023-07-29T05:39:06;6.55;;;2.17;;
79412;SDS011;68863;49.528;11.010;2023-07-29T05:40:07;4.95;;;2.00;;
79412;SDS011;68863;49.528;11.010;2023-07-29T05:41:08;5.22;;;2.15;;
79412;SDS011;68863;49.528;11.010;2023-07-29T05:42:09;4.68;;;1.92;;
79412;SDS011;68863;49.528;11.010;2023-07-29T05:43:09;4.75;;;1.77;;
79412;SDS011;68863;49.528;11.010;2023-07-29T05:44:09;5.13;;;2.13;;
79412;SDS011;68863;49.528;11.010;2023-07-29T05:45:10;5.03;;;2.13;;
79412;SDS011;68863;49.528;11.010;2023-07-29T05:46:10;5.47;;;2.25;;
79412;SDS011;68863;49.528;11.010;2023-07-29T05:47:11;5.25;;;1.80;;
79412;SDS011;68863;49.528;11.010;2023-07-29T05:48:11;5.67;;;2.37;;
79412;SDS011;68863;49.528;11.010;2023-07-29T05:49:11;5.43;;;2.08;;
79412;SDS011;68863;49.528;11.010;2023-07-29T05:50:11;4.90;;;2.10;;
79412;SDS011;68863;49.528;11.010;2023-07-29T05:51:12;4.95;;;2.05;;
79412;SDS011;68863;49.528;11.010;2023-07-29T05:52:12;5.53;;;1.80;;
79412;SDS011;68863;49.528;11.010;2023-07-29T05:53:13;4.40;;;1.52;;
79412;SDS011;68863;49.528;11.010;2023-07-29T05:54:14;5.05;;;1.50;;
79412;SDS011;68863;49.528;11.010;2023-07-29T05:55:14;5.07;;;1.83;;
79412;SDS011;68863;49.528;11.010;2023-07-29T05:56:14;6.95;;;2.10;;
79412;SDS011;68863;49.528;11.010;2023-07-29T05:57:15;7.82;;;1.98;;
79412;SDS011;68863;49.528;11.010;2023-07-29T05:58:15;4.20;;;1.53;;
79412;SDS011;68863;49.528;11.010;2023-07-29T05:59:15;4.53;;;1.75;;
79412;SDS011;68863;49.528;11.010;2023-07-29T06:00:16;5.47;;;1.98;;
79412;SDS011;68863;49.528;11.010;2023-07-29T06:01:17;8.13;;;1.63;;
79412;SDS011;68863;49.528;11.010;2023-07-29T06:02:17;4.57;;;1.73;;
79412;SDS011;68863;49.528;11.010;2023-07-29T06:03:18;5.60;;;1.55;;
79412;SDS011;68863;49.528;11.010;2023-07-29T06:04:18;4.20;;;1.85;;
79412;SDS011;68863;49.528;11.010;2023-07-29T06:05:18;5.53;;;1.83;;
79412;SDS011;68863;49.528;11.010;2023-07-29T06:06:18;4.17;;;1.60;;
79412;SDS011;68863;49.528;11.010;2023-07-29T06:07:19;6.60;;;1.60;;
79412;SDS011;68863;49.528;11.010;2023-07-29T06:08:19;4.88;;;2.20;;
79412;SDS011;68863;49.528;11.010;2023-07-29T06:09:19;4.82;;;1.42;;
79412;SDS011;68863;49.528;11.010;2023-07-29T06:10:20;5.20;;;1.90;;